createdAt,value
2019-05-03T00:02:27.676Z,94574.19
2019-05-03T00:05:27.015Z,94564.13
2019-05-03T00:08:07.738Z,94536.99
2019-05-03T00:10:39.656Z,94543.02
2019-05-03T00:13:12.310Z,94558.11
2019-05-03T00:16:00.433Z,94556.80
2019-05-03T00:18:32.818Z,94554.57
2019-05-03T00:21:03.230Z,94570.47
2019-05-03T00:23:33.531Z,94579.03
2019-05-03T00:26:03.853Z,94528.23
2019-05-03T00:28:34.179Z,94498.66
2019-05-03T00:31:04.601Z,94509.59
2019-05-03T00:33:36.561Z,94509.59
2019-05-03T00:36:22.168Z,94542.52
2019-05-03T00:38:54.643Z,94518.34
2019-05-03T00:41:24.983Z,94507.78
2019-05-03T00:43:55.270Z,94503.07
2019-05-03T00:46:27.181Z,94471.41
2019-05-03T00:48:57.544Z,94503.07
2019-05-03T00:51:27.842Z,94505.48
2019-05-03T00:53:58.213Z,94502.57
2019-05-03T00:56:28.716Z,94550.66
2019-05-03T00:58:59.302Z,94557.11
2019-05-03T01:01:29.576Z,94668.70
2019-05-03T01:04:01.669Z,94636.39
2019-05-03T01:06:33.990Z,94628.91
2019-05-03T01:09:07.800Z,94660.94
2019-05-03T01:11:38.112Z,94674.42
2019-05-03T01:14:08.764Z,94655.72
2019-05-03T01:16:42.662Z,94702.02
2019-05-03T01:19:13.744Z,94710.16
2019-05-03T01:21:45.044Z,94732.41
2019-05-03T01:24:18.104Z,94695.55
2019-05-03T01:26:47.653Z,94704.31
2019-05-03T01:29:22.905Z,94751.47
2019-05-03T01:31:53.197Z,94759.42
2019-05-03T01:34:23.508Z,94773.10
2019-05-03T01:36:53.838Z,94796.98
2019-05-03T01:39:24.706Z,94789.20
2019-05-03T01:41:55.117Z,94789.20
2019-05-03T01:44:25.457Z,94782.37
2019-05-03T01:46:57.396Z,94812.59
2019-05-03T01:49:34.143Z,94827.08
2019-05-03T01:52:15.297Z,94812.28
2019-05-03T01:54:45.825Z,94819.43
2019-05-03T01:57:17.351Z,94819.43
2019-05-03T01:59:47.786Z,94817.13
2019-05-03T02:02:41.854Z,94802.70
2019-05-03T02:05:32.084Z,94795.05
2019-05-03T02:08:02.575Z,94819.73
2019-05-03T02:10:32.656Z,94810.97
2019-05-03T02:13:02.984Z,94799.59
2019-05-03T02:15:33.464Z,94823.16
2019-05-03T02:18:03.745Z,94810.16
2019-05-03T02:20:34.050Z,94825.77
2019-05-03T02:23:05.651Z,94825.77
2019-05-03T02:25:35.808Z,94805.75
2019-05-03T02:28:06.458Z,94795.23
2019-05-03T02:30:39.995Z,94795.23
2019-05-03T02:33:13.088Z,94747.23
2019-05-03T02:35:43.879Z,94751.00
2019-05-03T02:38:15.552Z,94751.00
2019-05-03T02:40:46.007Z,94702.15
2019-05-03T02:43:26.259Z,94702.15
2019-05-03T02:46:16.807Z,94722.84
2019-05-03T02:49:09.555Z,94716.99
2019-05-03T02:51:40.195Z,94715.07
2019-05-03T02:54:10.470Z,94715.07
2019-05-03T02:56:40.778Z,94749.53
2019-05-03T02:59:15.831Z,94804.01
2019-05-03T03:01:47.171Z,94804.01
2019-05-03T03:04:19.338Z,94773.28
2019-05-03T03:06:55.459Z,94754.77
2019-05-03T03:09:26.169Z,94797.66
2019-05-03T03:11:58.899Z,94817.81
2019-05-03T03:14:30.358Z,94802.52
2019-05-03T03:17:02.866Z,94833.73
2019-05-03T03:19:35.361Z,94813.95
2019-05-03T03:22:11.423Z,94839.58
2019-05-03T03:24:45.972Z,94836.34
2019-05-03T03:27:19.835Z,94836.34
2019-05-03T03:29:55.280Z,94843.38
2019-05-03T03:32:37.871Z,94863.37
2019-05-03T03:35:21.125Z,94845.30
2019-05-03T03:37:48.448Z,94854.08
2019-05-03T03:40:19.930Z,94828.88
2019-05-03T03:42:55.753Z,94839.77
2019-05-03T03:45:26.547Z,94839.77
2019-05-03T03:47:59.357Z,94873.64
2019-05-03T03:50:35.988Z,94891.00
2019-05-03T03:53:08.273Z,94941.16
2019-05-03T03:55:40.951Z,94941.16
2019-05-03T03:58:11.244Z,94966.88
2019-05-03T04:00:50.026Z,95012.97
2019-05-03T04:03:20.931Z,94979.91
2019-05-03T04:05:51.783Z,94997.47
2019-05-03T04:08:25.060Z,94988.38
2019-05-03T04:10:55.829Z,94990.68
2019-05-03T04:13:27.093Z,95007.62
2019-05-03T04:16:20.331Z,95007.62
2019-05-03T04:19:02.394Z,95037.38
2019-05-03T04:21:32.855Z,95097.47
2019-05-03T04:24:05.769Z,95103.38
2019-05-03T04:26:37.018Z,95084.45
2019-05-03T04:29:07.855Z,95073.88
2019-05-03T04:31:39.151Z,95072.89
2019-05-03T04:34:10.010Z,95125.88
2019-05-03T04:36:40.592Z,95190.91
2019-05-03T04:39:11.234Z,95190.91
2019-05-03T04:41:41.510Z,95193.03
2019-05-03T04:44:11.815Z,95241.91
2019-05-03T04:46:46.260Z,95254.14
2019-05-03T04:49:15.565Z,95271.59
2019-05-03T04:51:47.686Z,95266.05
2019-05-03T04:54:35.561Z,95268.98
2019-05-03T04:57:06.769Z,95340.12
2019-05-03T04:59:38.214Z,95383.18
2019-05-03T05:02:08.464Z,95423.34
2019-05-03T05:04:38.752Z,95447.51
2019-05-03T05:07:10.045Z,95440.33
2019-05-03T05:09:45.612Z,95507.27
2019-05-03T05:12:16.432Z,95532.78
2019-05-03T05:14:48.924Z,95581.45
2019-05-03T05:17:29.249Z,95606.77
2019-05-03T05:20:11.730Z,95681.04
2019-05-03T05:22:42.497Z,95731.52
2019-05-03T05:25:16.621Z,95794.04
2019-05-03T05:28:15.037Z,95880.94
2019-05-03T05:30:45.555Z,95934.65
2019-05-03T05:33:21.715Z,96001.00
2019-05-03T05:35:54.511Z,96000.64
2019-05-03T05:38:25.742Z,95951.19
2019-05-03T05:40:56.198Z,95911.73
2019-05-03T05:43:26.685Z,95827.75
2019-05-03T05:46:01.473Z,95792.59
2019-05-03T05:48:36.894Z,95738.92
2019-05-03T05:51:09.945Z,95688.05
2019-05-03T05:53:40.296Z,95751.86
2019-05-03T05:56:35.766Z,95771.32
2019-05-03T05:59:16.701Z,95786.20
2019-05-03T06:01:55.831Z,95913.86
2019-05-03T06:04:27.129Z,96085.88
2019-05-03T06:07:24.721Z,96350.64
2019-05-03T06:10:05.257Z,96540.70
2019-05-03T06:12:54.688Z,96777.87
2019-05-03T06:15:54.700Z,96817.03
2019-05-03T06:18:30.265Z,97064.19
2019-05-03T06:21:17.453Z,97286.41
2019-05-03T06:23:56.343Z,97536.90
2019-05-03T06:26:40.664Z,97704.11
2019-05-03T06:29:10.975Z,97785.56
2019-05-03T06:32:01.719Z,97734.88
2019-05-03T06:34:32.068Z,97662.75
2019-05-03T06:37:05.008Z,97321.44
2019-05-03T06:39:35.339Z,97134.95
2019-05-03T06:42:09.919Z,97109.56
2019-05-03T06:44:38.598Z,97086.45
2019-05-03T06:47:10.492Z,97639.56
2019-05-03T06:49:44.890Z,98418.38
2019-05-03T06:52:14.743Z,99012.80
2019-05-03T06:54:45.242Z,99562.88
2019-05-03T06:57:18.044Z,99691.53
2019-05-03T07:00:01.116Z,98883.77
2019-05-03T07:02:41.369Z,98185.20
2019-05-03T07:05:20.427Z,97795.98
2019-05-03T07:08:00.786Z,98541.36
2019-05-03T07:10:35.263Z,99319.72
2019-05-03T07:13:08.761Z,100189.00
2019-05-03T07:15:37.860Z,100578.72
2019-05-03T07:18:08.757Z,100049.39
2019-05-03T07:20:56.746Z,99464.69
2019-05-03T07:23:25.838Z,99395.16
2019-05-03T07:25:57.368Z,99346.22
2019-05-03T07:28:27.662Z,99557.99
2019-05-03T07:30:58.012Z,99973.25
2019-05-03T07:33:32.181Z,100468.38
2019-05-03T07:36:05.574Z,100438.66
2019-05-03T07:38:36.433Z,100599.72
2019-05-03T07:41:09.127Z,100251.63
2019-05-03T07:43:41.703Z,99880.84
2019-05-03T07:46:14.537Z,99118.95
2019-05-03T07:48:45.702Z,98407.84
2019-05-03T07:51:16.046Z,97840.66
2019-05-03T07:53:47.749Z,97556.37
2019-05-03T07:56:18.548Z,97612.44
2019-05-03T07:58:59.958Z,97970.75
2019-05-03T08:01:31.078Z,98436.63
2019-05-03T08:04:01.374Z,98792.64
2019-05-03T08:06:31.683Z,98693.89
2019-05-03T08:09:04.763Z,98993.91
2019-05-03T08:11:35.250Z,98790.13
2019-05-03T08:14:07.032Z,98640.33
2019-05-03T08:16:37.371Z,98448.91
2019-05-03T08:19:09.308Z,98222.34
2019-05-03T08:21:39.674Z,98377.31
2019-05-03T08:24:10.016Z,98410.69
2019-05-03T08:26:40.709Z,98623.00
2019-05-03T08:29:16.252Z,98436.44
2019-05-03T08:32:05.195Z,98182.36
2019-05-03T08:34:55.586Z,98062.59
2019-05-03T08:37:39.515Z,98137.41
2019-05-03T08:40:09.891Z,98175.23
2019-05-03T08:42:40.602Z,98078.18
2019-05-03T08:45:14.663Z,97779.55
2019-05-03T08:47:45.128Z,97594.91
2019-05-03T08:50:21.174Z,97384.02
2019-05-03T08:52:47.777Z,97263.98
2019-05-03T08:55:18.070Z,97183.77
2019-05-03T08:57:48.716Z,97226.86
2019-05-03T09:00:20.774Z,97481.01
2019-05-03T09:02:52.203Z,97733.72
2019-05-03T09:05:22.492Z,97898.00
2019-05-03T09:07:54.861Z,97911.28
2019-05-03T09:10:30.577Z,97864.19
2019-05-03T09:13:06.795Z,98668.13
2019-05-03T09:15:37.673Z,98927.56
2019-05-03T09:18:08.356Z,98838.61
2019-05-03T09:20:38.741Z,99771.41
2019-05-03T09:23:11.293Z,100044.53
2019-05-03T09:25:41.654Z,99957.16
2019-05-03T09:28:15.070Z,100088.61
2019-05-03T09:30:47.187Z,99657.67
2019-05-03T09:33:19.867Z,99136.98
2019-05-03T09:35:50.166Z,98773.81
2019-05-03T09:38:20.543Z,98349.38
2019-05-03T09:40:52.009Z,98067.06
2019-05-03T09:43:22.483Z,97722.13
2019-05-03T09:45:54.799Z,97526.28
2019-05-03T09:48:26.564Z,97430.27
2019-05-03T09:50:59.957Z,97428.77
2019-05-03T09:53:35.117Z,97374.94
2019-05-03T09:56:06.761Z,97551.73
2019-05-03T09:58:38.233Z,97680.61
2019-05-03T10:01:08.809Z,97761.19
2019-05-03T10:03:39.696Z,97859.06
2019-05-03T10:06:10.007Z,97985.83
2019-05-03T10:08:52.703Z,98268.20
2019-05-03T10:11:25.470Z,98405.22
2019-05-03T10:13:56.469Z,98567.29
2019-05-03T10:16:28.673Z,98612.22
2019-05-03T10:19:01.704Z,98437.45
2019-05-03T10:21:35.555Z,98544.84
2019-05-03T10:24:06.777Z,98665.47
2019-05-03T10:26:37.963Z,98612.53
2019-05-03T10:29:08.320Z,98704.77
2019-05-03T10:31:48.593Z,98825.66
2019-05-03T10:34:19.187Z,99385.69
2019-05-03T10:36:50.425Z,99696.58
2019-05-03T10:39:21.084Z,99969.44
2019-05-03T10:41:51.386Z,99798.36
2019-05-03T10:44:21.968Z,99605.37
2019-05-03T10:46:53.347Z,99766.22
2019-05-03T10:49:24.540Z,99534.63
2019-05-03T10:52:01.962Z,99417.94
2019-05-03T10:54:32.293Z,99191.11
2019-05-03T10:57:09.215Z,99027.63
2019-05-03T10:59:41.548Z,98740.22
2019-05-03T11:02:25.324Z,98646.01
2019-05-03T11:04:56.169Z,98538.03
2019-05-03T11:07:26.934Z,98692.47
2019-05-03T11:09:57.640Z,98994.78
2019-05-03T11:12:28.165Z,99387.70
2019-05-03T11:14:58.971Z,99375.31
2019-05-03T11:17:29.371Z,99016.45
2019-05-03T11:20:01.368Z,98564.45
2019-05-03T11:22:34.575Z,98139.91
2019-05-03T11:25:06.091Z,97874.16
2019-05-03T11:27:47.727Z,97789.36
2019-05-03T11:30:19.317Z,98001.42
2019-05-03T11:33:00.756Z,98100.42
2019-05-03T11:36:05.444Z,98212.59
2019-05-03T11:38:38.168Z,98504.29
2019-05-03T11:41:08.515Z,99072.70
2019-05-03T11:43:39.062Z,99701.97
2019-05-03T11:46:09.341Z,99792.23
2019-05-03T11:48:39.996Z,100107.20
2019-05-03T11:51:15.083Z,100826.34
2019-05-03T11:53:46.735Z,100791.27
2019-05-03T11:56:17.475Z,100920.97
2019-05-03T11:58:47.880Z,101289.18
2019-05-03T12:01:28.880Z,100903.59
2019-05-03T12:04:05.484Z,100269.60
2019-05-03T12:06:36.973Z,99545.34
2019-05-03T12:09:07.786Z,99245.56
2019-05-03T12:11:44.190Z,98911.11
2019-05-03T12:14:15.586Z,98521.08
2019-05-03T12:17:17.916Z,98507.46
2019-05-03T12:19:40.007Z,98644.86
2019-05-03T12:22:13.553Z,99573.84
2019-05-03T12:24:50.747Z,100667.86
2019-05-03T12:27:24.456Z,101012.94
2019-05-03T12:29:56.118Z,100715.90
2019-05-03T12:32:26.943Z,99989.98
2019-05-03T12:34:57.498Z,99852.75
2019-05-03T12:37:28.111Z,99592.52
2019-05-03T12:39:58.565Z,99459.45
2019-05-03T12:42:35.508Z,99354.50
2019-05-03T12:45:08.022Z,99096.55
2019-05-03T12:47:38.313Z,99261.17
2019-05-03T12:50:09.075Z,99100.39
2019-05-03T12:52:49.726Z,99170.50
2019-05-03T12:55:11.972Z,99896.70
2019-05-03T12:57:42.334Z,100893.16
2019-05-03T13:00:31.091Z,101138.59
2019-05-03T13:03:05.102Z,101415.88
2019-05-03T13:05:35.703Z,102238.94
2019-05-03T13:08:35.389Z,102557.88
2019-05-03T13:11:07.166Z,102626.25
2019-05-03T13:13:37.488Z,102636.35
2019-05-03T13:16:10.246Z,102805.75
2019-05-03T13:18:40.822Z,102723.41
2019-05-03T13:21:14.412Z,101807.59
2019-05-03T13:23:45.919Z,101071.50
2019-05-03T13:26:17.772Z,100527.69
2019-05-03T13:28:49.184Z,100079.62
2019-05-03T13:31:22.072Z,99700.53
2019-05-03T13:33:52.232Z,99181.48
2019-05-03T13:36:22.652Z,99072.06
2019-05-03T13:39:11.310Z,98795.08
2019-05-03T13:41:34.954Z,98719.81
2019-05-03T13:44:05.801Z,98739.12
2019-05-03T13:46:37.107Z,98619.97
2019-05-03T13:49:08.833Z,98735.14
2019-05-03T13:51:39.289Z,98896.39
2019-05-03T13:54:54.519Z,99693.80
2019-05-03T13:57:24.636Z,100594.62
2019-05-03T13:59:55.607Z,101543.36
2019-05-03T14:02:27.975Z,101619.59
2019-05-03T14:04:58.755Z,101928.75
2019-05-03T14:07:31.661Z,101943.67
2019-05-03T14:10:04.567Z,101963.13
2019-05-03T14:12:35.220Z,101922.51
2019-05-03T14:15:06.032Z,102082.38
2019-05-03T14:17:36.413Z,102482.14
2019-05-03T14:20:16.425Z,102485.61
2019-05-03T14:22:49.937Z,102845.16
2019-05-03T14:25:21.451Z,102960.16
2019-05-03T14:27:54.958Z,102655.02
2019-05-03T14:30:25.675Z,102738.44
2019-05-03T14:32:55.989Z,102788.11
2019-05-03T14:35:26.610Z,102201.80
2019-05-03T14:37:58.724Z,102002.41
2019-05-03T14:40:29.085Z,102005.97
2019-05-03T14:42:59.474Z,101926.16
2019-05-03T14:45:29.766Z,102053.48
2019-05-03T14:48:00.418Z,102017.38
2019-05-03T14:50:31.581Z,101885.91
2019-05-03T14:53:05.394Z,101301.48
2019-05-03T14:55:41.993Z,101579.23
2019-05-03T14:58:45.688Z,101552.11
2019-05-03T15:01:24.805Z,101217.98
2019-05-03T15:03:57.157Z,101280.13
2019-05-03T15:06:28.068Z,101346.35
2019-05-03T15:08:58.472Z,101480.19
2019-05-03T15:11:28.851Z,101293.16
2019-05-03T15:13:59.244Z,101263.28
2019-05-03T15:16:29.604Z,100967.51
2019-05-03T15:19:00.198Z,100979.67
2019-05-03T15:21:30.496Z,100836.95
2019-05-03T15:24:05.296Z,100788.77
2019-05-03T15:26:37.134Z,100812.83
2019-05-03T15:29:07.466Z,100692.92
2019-05-03T15:31:38.816Z,100617.59
2019-05-03T15:34:10.027Z,100228.31
2019-05-03T15:36:41.534Z,100009.13
2019-05-03T15:39:11.882Z,99894.28
2019-05-03T15:41:42.449Z,99763.78
2019-05-03T15:44:35.142Z,99340.38
2019-05-03T15:47:26.068Z,99299.97
2019-05-03T15:49:56.406Z,99450.86
2019-05-03T15:52:26.744Z,99701.20
2019-05-03T15:54:58.565Z,99489.82
2019-05-03T15:57:28.890Z,99299.33
2019-05-03T15:59:59.253Z,99084.44
2019-05-03T16:02:35.202Z,99096.61
2019-05-03T16:05:08.582Z,98775.41
2019-05-03T16:07:38.869Z,98668.34
2019-05-03T16:10:11.196Z,98383.62
2019-05-03T16:12:41.862Z,97966.37
2019-05-03T16:15:12.369Z,97576.90
2019-05-03T16:17:44.959Z,97330.00
2019-05-03T16:20:15.448Z,97197.12
2019-05-03T16:22:46.647Z,96999.71
2019-05-03T16:25:17.287Z,96903.66
2019-05-03T16:27:55.605Z,96903.80
2019-05-03T16:30:37.222Z,96851.28
2019-05-03T16:33:24.039Z,96761.84
2019-05-03T16:35:44.493Z,96768.59
2019-05-03T16:38:16.253Z,96780.25
2019-05-03T16:40:46.959Z,96770.55
2019-05-03T16:43:18.000Z,96716.11
2019-05-03T16:45:49.092Z,96676.61
2019-05-03T16:48:21.052Z,96615.09
2019-05-03T16:50:51.389Z,96615.09
2019-05-03T16:53:21.772Z,96651.25
2019-05-03T16:55:54.823Z,96609.48
2019-05-03T16:58:25.275Z,96586.83
2019-05-03T17:00:57.886Z,96580.23
2019-05-03T17:03:40.856Z,96553.25
2019-05-03T17:06:26.408Z,96515.11
2019-05-03T17:09:24.817Z,96493.11
2019-05-03T17:12:15.104Z,96484.56
2019-05-03T17:14:45.553Z,96388.80
2019-05-03T17:17:15.849Z,96334.80
2019-05-03T17:19:46.123Z,96276.16
2019-05-03T17:22:17.906Z,96198.88
2019-05-03T17:24:56.046Z,96191.35
2019-05-03T17:27:27.140Z,96135.61
2019-05-03T17:29:57.444Z,96107.69
2019-05-03T17:32:27.910Z,96022.50
2019-05-03T17:34:58.408Z,96015.12
2019-05-03T17:37:28.688Z,95995.91
2019-05-03T17:40:16.685Z,95966.78
2019-05-03T17:43:05.096Z,95954.32
2019-05-03T17:45:39.723Z,95941.05
2019-05-03T17:48:10.655Z,95961.52
2019-05-03T17:50:45.433Z,95954.64
2019-05-03T17:53:35.734Z,95967.09
2019-05-03T17:56:24.434Z,96013.30
2019-05-03T17:59:04.530Z,96027.53
2019-05-03T18:01:51.919Z,96009.05
2019-05-03T18:04:40.592Z,95998.86
2019-05-03T18:07:34.939Z,96018.20
2019-05-03T18:10:06.428Z,95977.52
2019-05-03T18:12:36.701Z,95996.91
2019-05-03T18:15:08.664Z,95946.12
2019-05-03T18:17:38.944Z,95933.34
2019-05-03T18:20:15.084Z,95925.47
2019-05-03T18:22:45.550Z,95909.43
2019-05-03T18:25:16.256Z,95892.72
2019-05-03T18:27:46.675Z,95886.83
2019-05-03T18:30:17.360Z,95883.89
2019-05-03T18:32:49.138Z,95851.80
2019-05-03T18:35:19.419Z,95853.43
2019-05-03T18:37:58.833Z,95827.89
2019-05-03T18:40:31.218Z,95789.10
2019-05-03T18:43:18.055Z,95790.59
2019-05-03T18:46:10.553Z,95791.59
2019-05-03T18:48:41.011Z,95800.23
2019-05-03T18:51:11.297Z,95769.64
2019-05-03T18:53:41.618Z,95791.23
2019-05-03T18:56:14.743Z,95760.60
2019-05-03T18:58:45.097Z,95764.39
2019-05-03T19:01:15.456Z,95753.09
2019-05-03T19:03:47.503Z,95778.47
2019-05-03T19:06:18.980Z,95785.84
2019-05-03T19:09:21.013Z,95724.13
2019-05-03T19:12:00.806Z,95752.91
2019-05-03T19:14:31.382Z,95772.58
2019-05-03T19:17:15.424Z,95740.65
2019-05-03T19:19:47.116Z,95695.68
2019-05-03T19:22:19.008Z,95658.55
2019-05-03T19:24:49.293Z,95618.63
2019-05-03T19:27:19.965Z,95641.69
2019-05-03T19:29:52.011Z,95541.53
2019-05-03T19:32:27.921Z,95520.11
2019-05-03T19:34:55.109Z,95470.82
2019-05-03T19:37:25.390Z,95492.68
2019-05-03T19:39:57.776Z,95465.58
2019-05-03T19:42:28.447Z,95452.52
2019-05-03T19:44:58.864Z,95472.58
2019-05-03T19:47:35.347Z,95448.28
2019-05-03T19:50:08.338Z,95422.45
2019-05-03T19:52:59.645Z,95434.55
2019-05-03T19:55:29.984Z,95406.79
2019-05-03T19:58:02.602Z,95374.14
2019-05-03T20:00:49.416Z,95362.22
2019-05-03T20:03:30.369Z,95361.09
2019-05-03T20:06:18.637Z,95333.52
2019-05-03T20:08:57.569Z,95327.63
2019-05-03T20:11:27.985Z,95347.06
2019-05-03T20:13:58.323Z,95380.02
2019-05-03T20:16:28.662Z,95404.80
2019-05-03T20:18:58.991Z,95389.31
2019-05-03T20:21:29.332Z,95405.80
2019-05-03T20:24:00.483Z,95420.97
2019-05-03T20:26:31.465Z,95417.22
2019-05-03T20:29:02.107Z,95417.22
2019-05-03T20:31:32.418Z,95410.35
2019-05-03T20:34:07.361Z,95395.49
2019-05-03T20:36:37.639Z,95447.59
2019-05-03T20:39:18.740Z,95445.16
2019-05-03T20:41:49.412Z,95433.39
2019-05-03T20:44:28.473Z,95434.86
2019-05-03T20:47:04.393Z,95435.86
2019-05-03T20:49:36.311Z,95426.34
2019-05-03T20:52:06.616Z,95411.16
2019-05-03T20:54:37.281Z,95437.98
2019-05-03T20:57:07.733Z,95427.64
2019-05-03T20:59:45.254Z,95418.66
2019-05-03T21:02:11.145Z,95385.70
2019-05-03T21:04:41.579Z,95363.84
2019-05-03T21:07:12.857Z,95326.47
2019-05-03T21:09:45.983Z,95311.09
2019-05-03T21:12:16.583Z,95309.97
2019-05-03T21:14:47.865Z,95283.70
2019-05-03T21:17:41.675Z,95246.84
2019-05-03T21:20:30.028Z,95310.28
2019-05-03T21:23:02.504Z,95301.36
2019-05-03T21:26:02.606Z,95245.22
2019-05-03T21:28:16.135Z,95218.47
2019-05-03T21:30:46.572Z,95206.08
2019-05-03T21:33:16.903Z,95173.48
2019-05-03T21:35:47.305Z,95160.27
2019-05-03T21:38:18.146Z,95161.08
2019-05-03T21:40:48.538Z,95166.31
2019-05-03T21:43:19.601Z,95191.74
2019-05-03T21:45:54.574Z,95162.88
2019-05-03T21:48:28.760Z,95143.19
2019-05-03T21:50:59.045Z,95167.62
2019-05-03T21:53:31.514Z,95146.73
2019-05-03T21:56:02.130Z,95106.66
2019-05-03T21:58:32.403Z,95099.78
2019-05-03T22:01:07.820Z,95064.64
2019-05-03T22:03:45.323Z,95041.84
2019-05-03T22:06:17.217Z,95044.09
2019-05-03T22:08:47.858Z,95027.83
2019-05-03T22:11:18.176Z,95002.42
2019-05-03T22:13:57.020Z,94968.20
2019-05-03T22:16:46.514Z,94906.70
2019-05-03T22:19:19.424Z,94856.08
2019-05-03T22:22:20.485Z,94831.69
2019-05-03T22:24:56.542Z,94866.97
2019-05-03T22:27:35.133Z,94861.92
2019-05-03T22:30:06.755Z,94861.43
2019-05-03T22:32:37.076Z,94846.81
2019-05-03T22:35:08.762Z,94856.58
2019-05-03T22:37:39.269Z,94852.66
2019-05-03T22:40:10.315Z,94851.05
2019-05-03T22:42:40.897Z,94908.63
2019-05-03T22:45:12.928Z,94935.95
2019-05-03T22:47:44.586Z,94936.95
2019-05-03T22:50:15.881Z,94995.06
2019-05-03T22:52:46.149Z,95022.47
2019-05-03T22:55:17.811Z,95022.47
2019-05-03T22:57:48.133Z,95004.04
2019-05-03T23:00:18.450Z,94988.56
2019-05-03T23:02:48.778Z,94959.42
2019-05-03T23:05:19.981Z,94946.72
2019-05-03T23:07:50.351Z,94928.17
2019-05-03T23:10:20.974Z,94903.59
2019-05-03T23:13:05.038Z,94871.20
2019-05-03T23:15:35.482Z,94857.39
2019-05-03T23:18:10.154Z,94792.51
2019-05-03T23:20:52.999Z,94707.60
2019-05-03T23:24:00.525Z,94684.73
2019-05-03T23:26:31.123Z,94691.70
2019-05-03T23:29:04.301Z,94712.83
2019-05-03T23:31:34.757Z,94744.66
2019-05-03T23:34:05.468Z,94744.66
2019-05-03T23:36:36.323Z,94720.28
2019-05-03T23:39:08.786Z,94769.91
2019-05-03T23:41:39.068Z,94807.12
2019-05-03T23:44:10.489Z,94800.28
2019-05-03T23:47:02.580Z,94767.72
2019-05-03T23:49:32.989Z,94732.97
2019-05-03T23:52:25.668Z,94723.20
2019-05-03T23:54:59.874Z,94723.20
2019-05-03T23:57:35.553Z,94726.63
